Terminal Aerodrome Forecast
Issued by NWS

Home | Current Version | Previous Version | Text Only | Print | Product List | Glossary On
Versions: 1 2 3 4 5 6 7 8 9 10 11 12 13 14 15 16 17 18 19 20 21 22
000
FTUS43 KDVN 231700
TAFBRL
TAF
KBRL 231734Z 2318/2418 20011KT P6SM BKN015
     FM240000 24006KT 5SM BR OVC015
     FM241200 33012KT P6SM VCSH OVC010=

USA.gov is the U.S. government's official web portal to all federal, state and local government web resources and services.